sensor_id;sensor_type;location;lat;lon;timestamp;temperature;humidity
11264;DHT22;5689;48.798;9.070;2023-07-13T00:00:03;19.90;92.70
11264;DHT22;5689;48.798;9.070;2023-07-13T00:02:40;19.80;92.40
11264;DHT22;5689;48.798;9.070;2023-07-13T00:05:08;19.90;92.10
11264;DHT22;5689;48.798;9.070;2023-07-13T00:07:36;19.90;92.50
11264;DHT22;5689;48.798;9.070;2023-07-13T00:10:05;19.80;92.00
11264;DHT22;5689;48.798;9.070;2023-07-13T00:12:37;19.80;91.80
11264;DHT22;5689;48.798;9.070;2023-07-13T00:15:21;19.80;91.90
11264;DHT22;5689;48.798;9.070;2023-07-13T00:17:53;19.70;92.40
11264;DHT22;5689;48.798;9.070;2023-07-13T00:20:22;19.60;91.90
11264;DHT22;5689;48.798;9.070;2023-07-13T00:22:52;19.60;91.70
11264;DHT22;5689;48.798;9.070;2023-07-13T00:25:23;19.60;92.10
11264;DHT22;5689;48.798;9.070;2023-07-13T00:27:54;19.60;91.80
11264;DHT22;5689;48.798;9.070;2023-07-13T00:30:23;19.40;92.20
11264;DHT22;5689;48.798;9.070;2023-07-13T00:32:53;19.40;91.80
11264;DHT22;5689;48.798;9.070;2023-07-13T00:35:27;19.30;91.70
11264;DHT22;5689;48.798;9.070;2023-07-13T00:37:57;19.40;91.50
11264;DHT22;5689;48.798;9.070;2023-07-13T00:40:25;19.40;91.70
11264;DHT22;5689;48.798;9.070;2023-07-13T00:42:53;19.30;91.40
11264;DHT22;5689;48.798;9.070;2023-07-13T00:48:33;19.20;91.50
11264;DHT22;5689;48.798;9.070;2023-07-13T00:51:03;19.30;91.20
11264;DHT22;5689;48.798;9.070;2023-07-13T00:53:32;19.30;90.80
11264;DHT22;5689;48.798;9.070;2023-07-13T00:56:03;19.30;90.80
11264;DHT22;5689;48.798;9.070;2023-07-13T00:58:31;19.20;91.30
11264;DHT22;5689;48.798;9.070;2023-07-13T01:01:00;19.40;90.40
11264;DHT22;5689;48.798;9.070;2023-07-13T01:03:28;19.50;90.10
11264;DHT22;5689;48.798;9.070;2023-07-13T01:05:57;19.50;90.00
11264;DHT22;5689;48.798;9.070;2023-07-13T01:08:25;19.50;89.30
11264;DHT22;5689;48.798;9.070;2023-07-13T01:10:55;19.50;90.00
11264;DHT22;5689;48.798;9.070;2023-07-13T01:13:24;19.40;89.60
11264;DHT22;5689;48.798;9.070;2023-07-13T01:15:55;19.30;89.50
11264;DHT22;5689;48.798;9.070;2023-07-13T01:18:26;19.40;90.10
11264;DHT22;5689;48.798;9.070;2023-07-13T01:20:57;19.30;89.90
11264;DHT22;5689;48.798;9.070;2023-07-13T01:23:26;19.30;89.80
11264;DHT22;5689;48.798;9.070;2023-07-13T01:25:55;19.30;89.80
11264;DHT22;5689;48.798;9.070;2023-07-13T01:28:25;19.30;89.90
11264;DHT22;5689;48.798;9.070;2023-07-13T01:30:56;19.20;90.00
11264;DHT22;5689;48.798;9.070;2023-07-13T01:33:25;19.10;90.10
11264;DHT22;5689;48.798;9.070;2023-07-13T01:35:53;19.10;90.00
11264;DHT22;5689;48.798;9.070;2023-07-13T01:38:26;19.10;90.00
11264;DHT22;5689;48.798;9.070;2023-07-13T01:40:54;19.10;89.90
11264;DHT22;5689;48.798;9.070;2023-07-13T01:43:23;19.10;89.90
11264;DHT22;5689;48.798;9.070;2023-07-13T01:45:51;19.10;90.10
11264;DHT22;5689;48.798;9.070;2023-07-13T01:48:20;19.10;90.00
11264;DHT22;5689;48.798;9.070;2023-07-13T01:50:48;19.00;90.10
11264;DHT22;5689;48.798;9.070;2023-07-13T01:53:16;18.90;89.90
11264;DHT22;5689;48.798;9.070;2023-07-13T01:55:46;19.00;90.00
11264;DHT22;5689;48.798;9.070;2023-07-13T01:58:14;18.90;90.10
11264;DHT22;5689;48.798;9.070;2023-07-13T02:00:42;18.90;89.70
11264;DHT22;5689;48.798;9.070;2023-07-13T02:03:10;18.80;89.80
11264;DHT22;5689;48.798;9.070;2023-07-13T02:05:38;18.90;90.10
11264;DHT22;5689;48.798;9.070;2023-07-13T02:08:06;18.90;90.00
11264;DHT22;5689;48.798;9.070;2023-07-13T02:10:34;18.90;90.10
11264;DHT22;5689;48.798;9.070;2023-07-13T02:13:04;18.80;90.20
11264;DHT22;5689;48.798;9.070;2023-07-13T02:15:32;18.70;90.30
11264;DHT22;5689;48.798;9.070;2023-07-13T02:18:00;18.70;90.70
11264;DHT22;5689;48.798;9.070;2023-07-13T02:20:28;18.60;90.60
11264;DHT22;5689;48.798;9.070;2023-07-13T02:22:56;18.60;91.30
11264;DHT22;5689;48.798;9.070;2023-07-13T02:25:24;18.60;90.60
11264;DHT22;5689;48.798;9.070;2023-07-13T02:27:53;18.50;91.50
11264;DHT22;5689;48.798;9.070;2023-07-13T02:30:22;18.40;91.50
11264;DHT22;5689;48.798;9.070;2023-07-13T02:32:53;18.30;91.80
11264;DHT22;5689;48.798;9.070;2023-07-13T02:35:21;18.20;91.70
11264;DHT22;5689;48.798;9.070;2023-07-13T02:37:49;18.20;91.90
11264;DHT22;5689;48.798;9.070;2023-07-13T02:40:17;18.20;92.10
11264;DHT22;5689;48.798;9.070;2023-07-13T02:42:45;18.20;92.30
11264;DHT22;5689;48.798;9.070;2023-07-13T02:45:13;18.20;92.00
11264;DHT22;5689;48.798;9.070;2023-07-13T02:47:42;18.00;92.70
11264;DHT22;5689;48.798;9.070;2023-07-13T02:50:10;17.90;93.40
11264;DHT22;5689;48.798;9.070;2023-07-13T02:52:38;17.80;93.60
11264;DHT22;5689;48.798;9.070;2023-07-13T02:55:07;17.80;93.80
11264;DHT22;5689;48.798;9.070;2023-07-13T02:57:35;17.90;93.30
11264;DHT22;5689;48.798;9.070;2023-07-13T03:00:03;17.80;93.60
11264;DHT22;5689;48.798;9.070;2023-07-13T03:02:34;17.60;94.50
11264;DHT22;5689;48.798;9.070;2023-07-13T03:05:04;17.40;94.80
11264;DHT22;5689;48.798;9.070;2023-07-13T03:07:32;17.20;95.30
11264;DHT22;5689;48.798;9.070;2023-07-13T03:10:00;17.20;95.50
11264;DHT22;5689;48.798;9.070;2023-07-13T03:12:39;17.10;96.00
11264;DHT22;5689;48.798;9.070;2023-07-13T03:15:12;17.10;96.00
11264;DHT22;5689;48.798;9.070;2023-07-13T03:17:43;17.10;96.20
11264;DHT22;5689;48.798;9.070;2023-07-13T03:20:12;17.10;96.30
11264;DHT22;5689;48.798;9.070;2023-07-13T03:22:40;17.20;96.50
11264;DHT22;5689;48.798;9.070;2023-07-13T03:25:09;17.40;96.60
11264;DHT22;5689;48.798;9.070;2023-07-13T03:27:37;17.40;96.10
11264;DHT22;5689;48.798;9.070;2023-07-13T03:30:09;17.50;96.00
11264;DHT22;5689;48.798;9.070;2023-07-13T03:32:37;17.60;96.10
11264;DHT22;5689;48.798;9.070;2023-07-13T03:35:05;17.60;95.50
11264;DHT22;5689;48.798;9.070;2023-07-13T03:37:35;17.80;95.10
11264;DHT22;5689;48.798;9.070;2023-07-13T03:40:12;17.80;95.20
11264;DHT22;5689;48.798;9.070;2023-07-13T03:42:42;17.80;95.30
11264;DHT22;5689;48.798;9.070;2023-07-13T03:45:14;17.90;94.90
11264;DHT22;5689;48.798;9.070;2023-07-13T03:47:42;17.90;94.90
11264;DHT22;5689;48.798;9.070;2023-07-13T03:50:10;18.00;94.40
11264;DHT22;5689;48.798;9.070;2023-07-13T03:52:39;18.20;94.10
11264;DHT22;5689;48.798;9.070;2023-07-13T03:55:08;18.30;93.10
11264;DHT22;5689;48.798;9.070;2023-07-13T03:57:36;18.50;93.00
11264;DHT22;5689;48.798;9.070;2023-07-13T04:00:08;18.50;92.70
11264;DHT22;5689;48.798;9.070;2023-07-13T04:02:41;18.50;93.30
11264;DHT22;5689;48.798;9.070;2023-07-13T04:05:09;18.50;93.60
11264;DHT22;5689;48.798;9.070;2023-07-13T04:07:37;18.60;92.70
11264;DHT22;5689;48.798;9.070;2023-07-13T04:10:08;18.60;92.50
11264;DHT22;5689;48.798;9.070;2023-07-13T04:12:36;18.60;92.20
11264;DHT22;5689;48.798;9.070;2023-07-13T04:15:05;18.70;92.20
11264;DHT22;5689;48.798;9.070;2023-07-13T04:17:33;18.50;92.80
11264;DHT22;5689;48.798;9.070;2023-07-13T04:20:01;18.50;92.40
11264;DHT22;5689;48.798;9.070;2023-07-13T04:22:30;18.60;92.20
11264;DHT22;5689;48.798;9.070;2023-07-13T04:24:58;18.60;92.20
11264;DHT22;5689;48.798;9.070;2023-07-13T04:27:27;18.40;92.90
11264;DHT22;5689;48.798;9.070;2023-07-13T04:29:56;18.40;92.30
11264;DHT22;5689;48.798;9.070;2023-07-13T04:32:24;18.40;92.20
11264;DHT22;5689;48.798;9.070;2023-07-13T04:34:52;18.40;92.40
11264;DHT22;5689;48.798;9.070;2023-07-13T04:37:22;18.40;92.40
11264;DHT22;5689;48.798;9.070;2023-07-13T04:39:50;18.40;92.00
11264;DHT22;5689;48.798;9.070;2023-07-13T04:42:19;18.30;92.10
11264;DHT22;5689;48.798;9.070;2023-07-13T04:44:49;18.30;91.80
11264;DHT22;5689;48.798;9.070;2023-07-13T04:47:17;18.30;92.10
11264;DHT22;5689;48.798;9.070;2023-07-13T04:49:45;18.20;92.00
11264;DHT22;5689;48.798;9.070;2023-07-13T04:52:13;18.20;92.30
11264;DHT22;5689;48.798;9.070;2023-07-13T04:54:41;18.20;92.00
11264;DHT22;5689;48.798;9.070;2023-07-13T04:57:09;18.30;91.90
11264;DHT22;5689;48.798;9.070;2023-07-13T04:59:37;18.30;91.80
11264;DHT22;5689;48.798;9.070;2023-07-13T05:02:07;18.30;91.80
11264;DHT22;5689;48.798;9.070;2023-07-13T05:04:35;18.30;92.60
11264;DHT22;5689;48.798;9.070;2023-07-13T05:07:03;18.60;91.90
11264;DHT22;5689;48.798;9.070;2023-07-13T05:09:31;18.70;91.50
11264;DHT22;5689;48.798;9.070;2023-07-13T05:11:59;18.90;91.20
11264;DHT22;5689;48.798;9.070;2023-07-13T05:14:27;19.00;91.10
11264;DHT22;5689;48.798;9.070;2023-07-13T05:16:55;19.10;91.20
11264;DHT22;5689;48.798;9.070;2023-07-13T05:19:25;19.30;90.60
11264;DHT22;5689;48.798;9.070;2023-07-13T05:21:53;19.40;90.50
11264;DHT22;5689;48.798;9.070;2023-07-13T05:24:21;19.60;90.30
11264;DHT22;5689;48.798;9.070;2023-07-13T05:26:51;19.70;90.00
11264;DHT22;5689;48.798;9.070;2023-07-13T05:29:20;19.70;89.90
11264;DHT22;5689;48.798;9.070;2023-07-13T05:31:48;19.80;90.10
11264;DHT22;5689;48.798;9.070;2023-07-13T05:34:16;19.70;90.60
11264;DHT22;5689;48.798;9.070;2023-07-13T05:36:46;19.40;90.90
11264;DHT22;5689;48.798;9.070;2023-07-13T05:39:14;19.40;91.20
11264;DHT22;5689;48.798;9.070;2023-07-13T05:41:41;19.30;90.80
11264;DHT22;5689;48.798;9.070;2023-07-13T05:44:09;19.60;90.40
11264;DHT22;5689;48.798;9.070;2023-07-13T05:46:37;19.80;90.50
11264;DHT22;5689;48.798;9.070;2023-07-13T05:49:05;19.90;89.00
11264;DHT22;5689;48.798;9.070;2023-07-13T05:51:33;19.70;88.80
11264;DHT22;5689;48.798;9.070;2023-07-13T05:54:03;19.70;89.00
11264;DHT22;5689;48.798;9.070;2023-07-13T05:56:31;19.70;89.00
11264;DHT22;5689;48.798;9.070;2023-07-13T05:58:59;19.70;89.10
11264;DHT22;5689;48.798;9.070;2023-07-13T06:01:29;20.00;88.90
11264;DHT22;5689;48.798;9.070;2023-07-13T06:03:58;20.40;88.60
11264;DHT22;5689;48.798;9.070;2023-07-13T06:06:25;20.70;87.80
11264;DHT22;5689;48.798;9.070;2023-07-13T06:08:53;21.20;88.20
11264;DHT22;5689;48.798;9.070;2023-07-13T06:11:26;21.30;84.30
11264;DHT22;5689;48.798;9.070;2023-07-13T06:13:56;21.20;83.00
11264;DHT22;5689;48.798;9.070;2023-07-13T06:16:24;21.10;83.40
11264;DHT22;5689;48.798;9.070;2023-07-13T06:18:52;20.80;84.50
11264;DHT22;5689;48.798;9.070;2023-07-13T06:21:22;21.00;84.40
11264;DHT22;5689;48.798;9.070;2023-07-13T06:23:51;21.40;84.60
11264;DHT22;5689;48.798;9.070;2023-07-13T06:26:20;21.60;82.90
11264;DHT22;5689;48.798;9.070;2023-07-13T06:28:50;21.00;84.40
11264;DHT22;5689;48.798;9.070;2023-07-13T06:31:17;21.20;86.00
11264;DHT22;5689;48.798;9.070;2023-07-13T06:33:46;21.30;83.50
11264;DHT22;5689;48.798;9.070;2023-07-13T06:36:14;21.60;81.40
11264;DHT22;5689;48.798;9.070;2023-07-13T06:38:42;22.10;80.90
11264;DHT22;5689;48.798;9.070;2023-07-13T06:41:10;22.40;81.20
11264;DHT22;5689;48.798;9.070;2023-07-13T06:43:38;22.60;80.00
11264;DHT22;5689;48.798;9.070;2023-07-13T06:46:08;22.90;80.00
11264;DHT22;5689;48.798;9.070;2023-07-13T06:48:36;22.90;78.80
11264;DHT22;5689;48.798;9.070;2023-07-13T06:51:04;22.90;79.10
11264;DHT22;5689;48.798;9.070;2023-07-13T06:53:32;23.40;77.90
11264;DHT22;5689;48.798;9.070;2023-07-13T06:56:00;24.10;74.00
11264;DHT22;5689;48.798;9.070;2023-07-13T06:58:28;23.70;72.80
11264;DHT22;5689;48.798;9.070;2023-07-13T07:00:56;23.10;75.70
11264;DHT22;5689;48.798;9.070;2023-07-13T07:03:25;23.80;74.50
11264;DHT22;5689;48.798;9.070;2023-07-13T07:05:53;24.20;73.10
11264;DHT22;5689;48.798;9.070;2023-07-13T07:08:21;24.70;74.50
11264;DHT22;5689;48.798;9.070;2023-07-13T07:10:50;25.50;70.40
11264;DHT22;5689;48.798;9.070;2023-07-13T07:13:20;25.80;70.50
11264;DHT22;5689;48.798;9.070;2023-07-13T07:15:50;25.70;70.80
11264;DHT22;5689;48.798;9.070;2023-07-13T07:18:18;25.20;70.70
11264;DHT22;5689;48.798;9.070;2023-07-13T07:20:48;25.60;69.50
11264;DHT22;5689;48.798;9.070;2023-07-13T07:23:16;25.60;71.80
11264;DHT22;5689;48.798;9.070;2023-07-13T07:25:45;26.10;68.10
11264;DHT22;5689;48.798;9.070;2023-07-13T07:28:15;26.20;66.90
11264;DHT22;5689;48.798;9.070;2023-07-13T07:30:48;26.70;68.60
11264;DHT22;5689;48.798;9.070;2023-07-13T07:33:19;27.50;67.10
11264;DHT22;5689;48.798;9.070;2023-07-13T07:35:49;28.10;63.70
11264;DHT22;5689;48.798;9.070;2023-07-13T07:38:19;27.50;63.60
11264;DHT22;5689;48.798;9.070;2023-07-13T07:40:49;27.40;64.90
11264;DHT22;5689;48.798;9.070;2023-07-13T07:43:20;26.90;66.40
11264;DHT22;5689;48.798;9.070;2023-07-13T07:45:47;26.80;65.00
11264;DHT22;5689;48.798;9.070;2023-07-13T07:48:16;27.60;62.40
11264;DHT22;5689;48.798;9.070;2023-07-13T07:50:44;27.70;60.00
11264;DHT22;5689;48.798;9.070;2023-07-13T07:53:13;27.30;62.00
11264;DHT22;5689;48.798;9.070;2023-07-13T07:55:41;27.10;62.80
11264;DHT22;5689;48.798;9.070;2023-07-13T07:58:12;27.50;62.90
11264;DHT22;5689;48.798;9.070;2023-07-13T08:01:04;28.40;61.40
11264;DHT22;5689;48.798;9.070;2023-07-13T08:03:35;28.50;62.10
11264;DHT22;5689;48.798;9.070;2023-07-13T08:06:06;27.40;63.80
11264;DHT22;5689;48.798;9.070;2023-07-13T08:08:38;27.20;64.20
11264;DHT22;5689;48.798;9.070;2023-07-13T08:11:07;28.20;62.50
11264;DHT22;5689;48.798;9.070;2023-07-13T08:13:38;28.30;62.70
11264;DHT22;5689;48.798;9.070;2023-07-13T08:16:06;28.80;61.10
11264;DHT22;5689;48.798;9.070;2023-07-13T08:18:34;29.50;60.40
11264;DHT22;5689;48.798;9.070;2023-07-13T08:21:04;29.10;60.20
11264;DHT22;5689;48.798;9.070;2023-07-13T08:23:31;28.20;63.50
11264;DHT22;5689;48.798;9.070;2023-07-13T08:26:01;28.70;61.00
11264;DHT22;5689;48.798;9.070;2023-07-13T08:28:31;29.30;59.40
11264;DHT22;5689;48.798;9.070;2023-07-13T08:31:01;29.20;58.40
11264;DHT22;5689;48.798;9.070;2023-07-13T08:33:29;29.20;58.90
11264;DHT22;5689;48.798;9.070;2023-07-13T08:35:57;30.40;59.00
11264;DHT22;5689;48.798;9.070;2023-07-13T08:38:25;30.50;58.80
11264;DHT22;5689;48.798;9.070;2023-07-13T08:40:55;30.20;57.30
11264;DHT22;5689;48.798;9.070;2023-07-13T08:43:28;29.80;57.80
11264;DHT22;5689;48.798;9.070;2023-07-13T08:45:59;30.00;57.10
11264;DHT22;5689;48.798;9.070;2023-07-13T08:48:32;30.30;57.20
11264;DHT22;5689;48.798;9.070;2023-07-13T08:51:13;30.80;56.00
11264;DHT22;5689;48.798;9.070;2023-07-13T08:53:47;29.30;56.30
11264;DHT22;5689;48.798;9.070;2023-07-13T08:56:18;29.70;56.70
11264;DHT22;5689;48.798;9.070;2023-07-13T08:58:51;30.40;57.40
11264;DHT22;5689;48.798;9.070;2023-07-13T09:01:27;29.50;57.60
11264;DHT22;5689;48.798;9.070;2023-07-13T09:04:02;28.70;58.00
11264;DHT22;5689;48.798;9.070;2023-07-13T09:06:39;27.90;59.70
11264;DHT22;5689;48.798;9.070;2023-07-13T09:09:10;26.80;59.30
11264;DHT22;5689;48.798;9.070;2023-07-13T09:11:46;26.90;62.70
11264;DHT22;5689;48.798;9.070;2023-07-13T09:14:39;29.00;60.20
11264;DHT22;5689;48.798;9.070;2023-07-13T09:17:14;31.00;55.90
11264;DHT22;5689;48.798;9.070;2023-07-13T09:19:47;30.90;54.90
11264;DHT22;5689;48.798;9.070;2023-07-13T09:22:19;30.60;56.60
11264;DHT22;5689;48.798;9.070;2023-07-13T09:24:53;31.90;54.30
11264;DHT22;5689;48.798;9.070;2023-07-13T09:27:27;33.10;52.20
11264;DHT22;5689;48.798;9.070;2023-07-13T09:30:04;32.50;51.10
11264;DHT22;5689;48.798;9.070;2023-07-13T09:32:37;28.60;57.00
11264;DHT22;5689;48.798;9.070;2023-07-13T09:35:10;27.50;57.50
11264;DHT22;5689;48.798;9.070;2023-07-13T09:37:38;28.50;58.30
11264;DHT22;5689;48.798;9.070;2023-07-13T09:40:13;29.80;56.40
11264;DHT22;5689;48.798;9.070;2023-07-13T09:42:45;31.30;54.10
11264;DHT22;5689;48.798;9.070;2023-07-13T09:45:21;30.60;55.20
11264;DHT22;5689;48.798;9.070;2023-07-13T09:47:59;30.00;55.90
11264;DHT22;5689;48.798;9.070;2023-07-13T09:50:27;30.50;54.60
11264;DHT22;5689;48.798;9.070;2023-07-13T09:52:55;29.10;57.10
11264;DHT22;5689;48.798;9.070;2023-07-13T09:55:28;30.70;55.60
11264;DHT22;5689;48.798;9.070;2023-07-13T09:57:57;32.70;52.10
11264;DHT22;5689;48.798;9.070;2023-07-13T10:00:29;33.90;52.10
11264;DHT22;5689;48.798;9.070;2023-07-13T10:03:02;33.60;52.20
11264;DHT22;5689;48.798;9.070;2023-07-13T10:05:38;34.30;50.60
11264;DHT22;5689;48.798;9.070;2023-07-13T10:08:20;34.10;49.10
11264;DHT22;5689;48.798;9.070;2023-07-13T10:10:54;33.30;48.50
11264;DHT22;5689;48.798;9.070;2023-07-13T10:13:30;33.70;48.60
11264;DHT22;5689;48.798;9.070;2023-07-13T10:16:00;32.50;50.70
11264;DHT22;5689;48.798;9.070;2023-07-13T10:18:34;33.00;50.50
11264;DHT22;5689;48.798;9.070;2023-07-13T10:21:11;31.00;53.10
11264;DHT22;5689;48.798;9.070;2023-07-13T10:23:54;29.00;55.40
11264;DHT22;5689;48.798;9.070;2023-07-13T10:26:26;29.00;55.80
11264;DHT22;5689;48.798;9.070;2023-07-13T10:28:57;29.40;56.90
11264;DHT22;5689;48.798;9.070;2023-07-13T10:31:28;30.00;55.70
11264;DHT22;5689;48.798;9.070;2023-07-13T10:33:57;29.40;54.90
11264;DHT22;5689;48.798;9.070;2023-07-13T10:36:33;28.50;56.80
11264;DHT22;5689;48.798;9.070;2023-07-13T10:39:04;29.20;54.00
11264;DHT22;5689;48.798;9.070;2023-07-13T10:41:38;29.60;56.20
11264;DHT22;5689;48.798;9.070;2023-07-13T10:44:15;30.20;53.90
11264;DHT22;5689;48.798;9.070;2023-07-13T10:46:47;29.40;56.40
11264;DHT22;5689;48.798;9.070;2023-07-13T10:49:16;30.10;55.50
11264;DHT22;5689;48.798;9.070;2023-07-13T10:51:45;30.10;55.80
11264;DHT22;5689;48.798;9.070;2023-07-13T10:54:19;29.60;56.70
11264;DHT22;5689;48.798;9.070;2023-07-13T10:56:52;29.70;56.60
11264;DHT22;5689;48.798;9.070;2023-07-13T10:59:25;28.60;56.60
11264;DHT22;5689;48.798;9.070;2023-07-13T11:01:58;30.80;54.90
11264;DHT22;5689;48.798;9.070;2023-07-13T11:04:27;31.40;53.20
11264;DHT22;5689;48.798;9.070;2023-07-13T11:06:59;30.40;54.00
11264;DHT22;5689;48.798;9.070;2023-07-13T11:09:39;31.00;54.10
11264;DHT22;5689;48.798;9.070;2023-07-13T11:12:10;30.90;54.20
11264;DHT22;5689;48.798;9.070;2023-07-13T11:15:11;31.00;54.70
11264;DHT22;5689;48.798;9.070;2023-07-13T11:17:53;33.20;51.30
11264;DHT22;5689;48.798;9.070;2023-07-13T11:20:34;30.80;53.30
11264;DHT22;5689;48.798;9.070;2023-07-13T11:23:27;28.70;55.90
11264;DHT22;5689;48.798;9.070;2023-07-13T11:25:55;27.50;58.00
11264;DHT22;5689;48.798;9.070;2023-07-13T11:28:25;27.00;59.20
11264;DHT22;5689;48.798;9.070;2023-07-13T11:31:10;27.30;57.60
11264;DHT22;5689;48.798;9.070;2023-07-13T11:33:55;27.00;58.00
11264;DHT22;5689;48.798;9.070;2023-07-13T11:36:35;27.00;58.20
11264;DHT22;5689;48.798;9.070;2023-07-13T11:39:17;30.00;55.40
11264;DHT22;5689;48.798;9.070;2023-07-13T11:41:50;32.40;52.10
11264;DHT22;5689;48.798;9.070;2023-07-13T11:44:20;33.90;51.30
11264;DHT22;5689;48.798;9.070;2023-07-13T11:46:51;33.60;50.70
11264;DHT22;5689;48.798;9.070;2023-07-13T11:49:24;32.30;51.10
11264;DHT22;5689;48.798;9.070;2023-07-13T11:51:53;33.20;50.30
11264;DHT22;5689;48.798;9.070;2023-07-13T11:54:24;33.50;49.40
11264;DHT22;5689;48.798;9.070;2023-07-13T11:56:55;35.10;47.60
11264;DHT22;5689;48.798;9.070;2023-07-13T11:59:24;35.20;48.30
11264;DHT22;5689;48.798;9.070;2023-07-13T12:01:54;35.00;47.10
11264;DHT22;5689;48.798;9.070;2023-07-13T12:04:26;35.20;46.90
11264;DHT22;5689;48.798;9.070;2023-07-13T12:06:57;33.90;48.70
11264;DHT22;5689;48.798;9.070;2023-07-13T12:09:27;32.30;51.00
11264;DHT22;5689;48.798;9.070;2023-07-13T12:11:57;31.70;50.00
11264;DHT22;5689;48.798;9.070;2023-07-13T12:14:26;31.10;50.30
11264;DHT22;5689;48.798;9.070;2023-07-13T12:16:55;29.90;52.90
11264;DHT22;5689;48.798;9.070;2023-07-13T12:19:27;29.20;53.70
11264;DHT22;5689;48.798;9.070;2023-07-13T12:21:57;30.00;53.90
11264;DHT22;5689;48.798;9.070;2023-07-13T12:24:27;31.60;51.60
11264;DHT22;5689;48.798;9.070;2023-07-13T12:26:59;33.00;50.00
11264;DHT22;5689;48.798;9.070;2023-07-13T12:29:28;33.30;49.10
11264;DHT22;5689;48.798;9.070;2023-07-13T12:31:59;32.00;48.90
11264;DHT22;5689;48.798;9.070;2023-07-13T12:34:28;32.40;50.00
11264;DHT22;5689;48.798;9.070;2023-07-13T12:36:59;31.70;50.60
11264;DHT22;5689;48.798;9.070;2023-07-13T12:39:33;30.40;52.50
11264;DHT22;5689;48.798;9.070;2023-07-13T12:42:19;29.70;52.80
11264;DHT22;5689;48.798;9.070;2023-07-13T12:44:52;32.50;49.60
11264;DHT22;5689;48.798;9.070;2023-07-13T12:47:21;32.10;49.30
11264;DHT22;5689;48.798;9.070;2023-07-13T12:49:56;32.10;49.50
11264;DHT22;5689;48.798;9.070;2023-07-13T12:52:28;33.80;47.60
11264;DHT22;5689;48.798;9.070;2023-07-13T12:55:03;33.30;48.60
11264;DHT22;5689;48.798;9.070;2023-07-13T12:57:32;32.60;48.60
11264;DHT22;5689;48.798;9.070;2023-07-13T13:00:20;30.70;50.40
11264;DHT22;5689;48.798;9.070;2023-07-13T13:02:50;30.60;51.30
11264;DHT22;5689;48.798;9.070;2023-07-13T13:05:20;30.90;50.00
11264;DHT22;5689;48.798;9.070;2023-07-13T13:07:50;32.50;48.70
11264;DHT22;5689;48.798;9.070;2023-07-13T13:10:19;31.20;50.10
11264;DHT22;5689;48.798;9.070;2023-07-13T13:12:48;30.10;51.60
11264;DHT22;5689;48.798;9.070;2023-07-13T13:15:16;29.10;53.00
11264;DHT22;5689;48.798;9.070;2023-07-13T13:17:44;29.70;52.80
11264;DHT22;5689;48.798;9.070;2023-07-13T13:20:15;30.10;50.40
11264;DHT22;5689;48.798;9.070;2023-07-13T13:22:45;30.80;52.10
11264;DHT22;5689;48.798;9.070;2023-07-13T13:25:14;30.80;50.00
11264;DHT22;5689;48.798;9.070;2023-07-13T13:27:43;30.50;52.20
11264;DHT22;5689;48.798;9.070;2023-07-13T13:30:12;31.90;48.80
11264;DHT22;5689;48.798;9.070;2023-07-13T13:32:41;32.10;48.20
11264;DHT22;5689;48.798;9.070;2023-07-13T13:35:13;33.50;49.50
11264;DHT22;5689;48.798;9.070;2023-07-13T13:37:42;33.50;47.30
11264;DHT22;5689;48.798;9.070;2023-07-13T13:40:19;32.70;48.30
11264;DHT22;5689;48.798;9.070;2023-07-13T13:42:48;33.10;47.90
11264;DHT22;5689;48.798;9.070;2023-07-13T13:45:16;35.20;44.40
11264;DHT22;5689;48.798;9.070;2023-07-13T13:47:44;32.50;47.90
11264;DHT22;5689;48.798;9.070;2023-07-13T13:50:16;31.60;49.40
11264;DHT22;5689;48.798;9.070;2023-07-13T13:52:44;31.80;49.80
11264;DHT22;5689;48.798;9.070;2023-07-13T13:55:14;31.70;50.70
11264;DHT22;5689;48.798;9.070;2023-07-13T13:57:44;33.50;47.80
11264;DHT22;5689;48.798;9.070;2023-07-13T14:00:13;33.70;47.60
11264;DHT22;5689;48.798;9.070;2023-07-13T14:02:43;33.70;47.70
11264;DHT22;5689;48.798;9.070;2023-07-13T14:05:15;34.10;48.00
11264;DHT22;5689;48.798;9.070;2023-07-13T14:07:46;31.10;50.30
11264;DHT22;5689;48.798;9.070;2023-07-13T14:10:15;32.90;48.90
11264;DHT22;5689;48.798;9.070;2023-07-13T14:12:47;33.50;48.50
11264;DHT22;5689;48.798;9.070;2023-07-13T14:15:20;33.60;47.20
11264;DHT22;5689;48.798;9.070;2023-07-13T14:17:48;33.10;49.10
11264;DHT22;5689;48.798;9.070;2023-07-13T14:20:18;33.00;48.30
11264;DHT22;5689;48.798;9.070;2023-07-13T14:22:47;31.20;51.80
11264;DHT22;5689;48.798;9.070;2023-07-13T14:25:17;32.10;49.40
11264;DHT22;5689;48.798;9.070;2023-07-13T14:27:49;32.00;48.40
11264;DHT22;5689;48.798;9.070;2023-07-13T14:30:19;29.80;50.30
11264;DHT22;5689;48.798;9.070;2023-07-13T14:32:48;28.60;53.20
11264;DHT22;5689;48.798;9.070;2023-07-13T14:35:19;30.00;51.60
11264;DHT22;5689;48.798;9.070;2023-07-13T14:37:48;29.80;50.50
11264;DHT22;5689;48.798;9.070;2023-07-13T14:40:19;28.90;53.10
11264;DHT22;5689;48.798;9.070;2023-07-13T14:42:50;30.20;50.90
11264;DHT22;5689;48.798;9.070;2023-07-13T14:45:19;29.80;51.30
11264;DHT22;5689;48.798;9.070;2023-07-13T14:47:48;30.00;51.30
11264;DHT22;5689;48.798;9.070;2023-07-13T14:50:17;29.40;51.90
11264;DHT22;5689;48.798;9.070;2023-07-13T14:52:46;28.60;53.30
11264;DHT22;5689;48.798;9.070;2023-07-13T14:55:17;28.70;53.10
11264;DHT22;5689;48.798;9.070;2023-07-13T14:57:45;29.60;52.30
11264;DHT22;5689;48.798;9.070;2023-07-13T15:00:17;30.20;52.00
11264;DHT22;5689;48.798;9.070;2023-07-13T15:02:48;31.10;50.80
11264;DHT22;5689;48.798;9.070;2023-07-13T15:05:20;30.70;51.90
11264;DHT22;5689;48.798;9.070;2023-07-13T15:07:49;29.30;51.60
11264;DHT22;5689;48.798;9.070;2023-07-13T15:10:19;29.30;52.40
11264;DHT22;5689;48.798;9.070;2023-07-13T15:12:48;29.00;52.50
11264;DHT22;5689;48.798;9.070;2023-07-13T15:15:17;28.50;54.10
11264;DHT22;5689;48.798;9.070;2023-07-13T15:17:46;27.90;54.40
11264;DHT22;5689;48.798;9.070;2023-07-13T15:20:19;27.30;55.00
11264;DHT22;5689;48.798;9.070;2023-07-13T15:22:49;27.50;56.10
11264;DHT22;5689;48.798;9.070;2023-07-13T15:25:29;27.60;55.30
11264;DHT22;5689;48.798;9.070;2023-07-13T15:27:57;27.80;55.10
11264;DHT22;5689;48.798;9.070;2023-07-13T15:30:29;28.00;55.00
11264;DHT22;5689;48.798;9.070;2023-07-13T15:33:00;27.90;55.00
11264;DHT22;5689;48.798;9.070;2023-07-13T15:35:29;27.80;55.70
11264;DHT22;5689;48.798;9.070;2023-07-13T15:37:57;28.10;55.50
11264;DHT22;5689;48.798;9.070;2023-07-13T15:40:25;28.10;55.20
11264;DHT22;5689;48.798;9.070;2023-07-13T15:42:53;28.30;53.80
11264;DHT22;5689;48.798;9.070;2023-07-13T15:45:22;27.80;53.50
11264;DHT22;5689;48.798;9.070;2023-07-13T15:47:52;27.60;53.50
11264;DHT22;5689;48.798;9.070;2023-07-13T15:50:23;27.90;53.00
11264;DHT22;5689;48.798;9.070;2023-07-13T15:52:53;28.60;52.40
11264;DHT22;5689;48.798;9.070;2023-07-13T15:55:22;28.30;54.50
11264;DHT22;5689;48.798;9.070;2023-07-13T15:57:52;28.50;53.40
11264;DHT22;5689;48.798;9.070;2023-07-13T16:00:22;27.70;54.40
11264;DHT22;5689;48.798;9.070;2023-07-13T16:02:52;27.20;55.20
11264;DHT22;5689;48.798;9.070;2023-07-13T16:05:21;27.20;57.10
11264;DHT22;5689;48.798;9.070;2023-07-13T16:07:51;27.40;54.40